sensor_id;sensor_type;location;lat;lon;timestamp;P1;durP1;ratioP1;P2;durP2;ratioP2
17784;SDS011;9016;53.582;10.062;2022-12-07T00:01:29;13.73;;;12.00;;
17784;SDS011;9016;53.582;10.062;2022-12-07T00:03:59;13.00;;;11.60;;
17784;SDS011;9016;53.582;10.062;2022-12-07T00:06:31;14.63;;;11.93;;
17784;SDS011;9016;53.582;10.062;2022-12-07T00:09:00;11.50;;;10.30;;
17784;SDS011;9016;53.582;10.062;2022-12-07T00:11:28;11.93;;;10.80;;
17784;SDS011;9016;53.582;10.062;2022-12-07T00:13:58;12.63;;;11.30;;
17784;SDS011;9016;53.582;10.062;2022-12-07T00:16:28;12.97;;;11.23;;
17784;SDS011;9016;53.582;10.062;2022-12-07T00:18:58;12.53;;;11.20;;
17784;SDS011;9016;53.582;10.062;2022-12-07T00:21:26;12.50;;;11.30;;
17784;SDS011;9016;53.582;10.062;2022-12-07T00:23:56;13.87;;;12.47;;
17784;SDS011;9016;53.582;10.062;2022-12-07T00:26:26;12.50;;;11.20;;
17784;SDS011;9016;53.582;10.062;2022-12-07T00:28:56;14.57;;;12.37;;
17784;SDS011;9016;53.582;10.062;2022-12-07T00:31:27;14.50;;;12.93;;
17784;SDS011;9016;53.582;10.062;2022-12-07T00:33:57;14.13;;;12.50;;
17784;SDS011;9016;53.582;10.062;2022-12-07T00:36:25;13.37;;;11.97;;
17784;SDS011;9016;53.582;10.062;2022-12-07T00:38:54;14.47;;;12.20;;
17784;SDS011;9016;53.582;10.062;2022-12-07T00:41:25;13.37;;;11.97;;
17784;SDS011;9016;53.582;10.062;2022-12-07T00:43:54;13.13;;;11.63;;
17784;SDS011;9016;53.582;10.062;2022-12-07T00:46:24;13.73;;;12.10;;
17784;SDS011;9016;53.582;10.062;2022-12-07T00:48:53;13.87;;;11.30;;
17784;SDS011;9016;53.582;10.062;2022-12-07T00:51:22;14.50;;;12.53;;
17784;SDS011;9016;53.582;10.062;2022-12-07T00:53:51;12.40;;;10.80;;
17784;SDS011;9016;53.582;10.062;2022-12-07T00:56:20;12.77;;;11.33;;
17784;SDS011;9016;53.582;10.062;2022-12-07T00:58:50;12.60;;;11.00;;
17784;SDS011;9016;53.582;10.062;2022-12-07T01:01:19;13.33;;;11.43;;
17784;SDS011;9016;53.582;10.062;2022-12-07T01:03:49;15.03;;;10.80;;
17784;SDS011;9016;53.582;10.062;2022-12-07T01:06:17;12.73;;;10.20;;
17784;SDS011;9016;53.582;10.062;2022-12-07T01:08:46;13.37;;;10.53;;
17784;SDS011;9016;53.582;10.062;2022-12-07T01:11:15;14.37;;;10.60;;
17784;SDS011;9016;53.582;10.062;2022-12-07T01:13:46;13.67;;;10.63;;
17784;SDS011;9016;53.582;10.062;2022-12-07T01:16:16;13.87;;;10.33;;
17784;SDS011;9016;53.582;10.062;2022-12-07T01:18:45;10.43;;;9.33;;
17784;SDS011;9016;53.582;10.062;2022-12-07T01:21:16;12.43;;;10.07;;
17784;SDS011;9016;53.582;10.062;2022-12-07T01:23:47;12.20;;;9.83;;
17784;SDS011;9016;53.582;10.062;2022-12-07T01:26:16;11.70;;;9.37;;
17784;SDS011;9016;53.582;10.062;2022-12-07T01:28:45;12.60;;;9.60;;
17784;SDS011;9016;53.582;10.062;2022-12-07T01:31:14;10.07;;;9.07;;
17784;SDS011;9016;53.582;10.062;2022-12-07T01:33:45;9.43;;;8.40;;
17784;SDS011;9016;53.582;10.062;2022-12-07T01:36:16;11.03;;;8.73;;
17784;SDS011;9016;53.582;10.062;2022-12-07T01:38:46;11.27;;;8.70;;
17784;SDS011;9016;53.582;10.062;2022-12-07T01:41:17;12.93;;;9.10;;
17784;SDS011;9016;53.582;10.062;2022-12-07T01:46:42;12.07;;;9.70;;
17784;SDS011;9016;53.582;10.062;2022-12-07T01:49:13;12.60;;;9.50;;
17784;SDS011;9016;53.582;10.062;2022-12-07T01:51:46;10.87;;;9.67;;
17784;SDS011;9016;53.582;10.062;2022-12-07T01:54:16;13.17;;;9.80;;
17784;SDS011;9016;53.582;10.062;2022-12-07T01:56:48;11.13;;;9.17;;
17784;SDS011;9016;53.582;10.062;2022-12-07T01:59:19;12.17;;;9.33;;
17784;SDS011;9016;53.582;10.062;2022-12-07T02:01:51;10.80;;;9.70;;
17784;SDS011;9016;53.582;10.062;2022-12-07T02:04:20;11.33;;;9.47;;
17784;SDS011;9016;53.582;10.062;2022-12-07T02:06:50;10.70;;;8.70;;
17784;SDS011;9016;53.582;10.062;2022-12-07T02:09:19;11.67;;;9.23;;
17784;SDS011;9016;53.582;10.062;2022-12-07T02:11:47;10.33;;;8.27;;
17784;SDS011;9016;53.582;10.062;2022-12-07T02:14:15;13.90;;;9.53;;
17784;SDS011;9016;53.582;10.062;2022-12-07T02:16:46;9.23;;;7.87;;
17784;SDS011;9016;53.582;10.062;2022-12-07T02:19:42;12.07;;;8.27;;
17784;SDS011;9016;53.582;10.062;2022-12-07T02:25:30;9.87;;;7.37;;
17784;SDS011;9016;53.582;10.062;2022-12-07T02:28:12;9.13;;;6.60;;
17784;SDS011;9016;53.582;10.062;2022-12-07T02:30:55;8.13;;;6.53;;
17784;SDS011;9016;53.582;10.062;2022-12-07T02:33:31;9.27;;;6.80;;
17784;SDS011;9016;53.582;10.062;2022-12-07T02:36:04;11.07;;;6.07;;
17784;SDS011;9016;53.582;10.062;2022-12-07T02:38:38;7.83;;;6.13;;
17784;SDS011;9016;53.582;10.062;2022-12-07T02:41:12;7.40;;;5.53;;
17784;SDS011;9016;53.582;10.062;2022-12-07T02:43:44;7.80;;;5.23;;
17784;SDS011;9016;53.582;10.062;2022-12-07T02:46:17;7.37;;;5.27;;
17784;SDS011;9016;53.582;10.062;2022-12-07T02:48:50;7.63;;;4.73;;
17784;SDS011;9016;53.582;10.062;2022-12-07T02:51:20;5.87;;;4.43;;
17784;SDS011;9016;53.582;10.062;2022-12-07T02:53:49;7.17;;;4.80;;
17784;SDS011;9016;53.582;10.062;2022-12-07T02:56:19;6.47;;;4.50;;
17784;SDS011;9016;53.582;10.062;2022-12-07T02:58:56;5.57;;;4.17;;
17784;SDS011;9016;53.582;10.062;2022-12-07T03:01:34;6.87;;;4.00;;
17784;SDS011;9016;53.582;10.062;2022-12-07T03:04:11;5.90;;;3.90;;
17784;SDS011;9016;53.582;10.062;2022-12-07T03:06:48;10.60;;;4.10;;
17784;SDS011;9016;53.582;10.062;2022-12-07T03:09:22;5.60;;;3.47;;
17784;SDS011;9016;53.582;10.062;2022-12-07T03:12:00;4.77;;;3.63;;
17784;SDS011;9016;53.582;10.062;2022-12-07T03:14:35;5.10;;;3.40;;
17784;SDS011;9016;53.582;10.062;2022-12-07T03:17:10;5.77;;;3.50;;
17784;SDS011;9016;53.582;10.062;2022-12-07T03:19:43;4.10;;;3.20;;
17784;SDS011;9016;53.582;10.062;2022-12-07T03:22:13;4.40;;;3.40;;
17784;SDS011;9016;53.582;10.062;2022-12-07T03:24:42;5.43;;;2.93;;
17784;SDS011;9016;53.582;10.062;2022-12-07T03:27:13;5.10;;;2.87;;
17784;SDS011;9016;53.582;10.062;2022-12-07T03:29:47;4.83;;;2.83;;
17784;SDS011;9016;53.582;10.062;2022-12-07T03:32:21;6.37;;;2.60;;
17784;SDS011;9016;53.582;10.062;2022-12-07T03:34:55;4.30;;;2.40;;
17784;SDS011;9016;53.582;10.062;2022-12-07T03:37:29;3.67;;;2.60;;
17784;SDS011;9016;53.582;10.062;2022-12-07T03:40:02;3.83;;;2.20;;
17784;SDS011;9016;53.582;10.062;2022-12-07T03:42:35;2.77;;;2.00;;
17784;SDS011;9016;53.582;10.062;2022-12-07T03:45:03;4.60;;;2.30;;
17784;SDS011;9016;53.582;10.062;2022-12-07T03:47:35;4.50;;;1.90;;
17784;SDS011;9016;53.582;10.062;2022-12-07T03:50:11;2.90;;;1.80;;
17784;SDS011;9016;53.582;10.062;2022-12-07T03:52:43;3.37;;;1.70;;
17784;SDS011;9016;53.582;10.062;2022-12-07T03:55:16;2.20;;;1.93;;
17784;SDS011;9016;53.582;10.062;2022-12-07T03:57:48;2.67;;;1.77;;
17784;SDS011;9016;53.582;10.062;2022-12-07T04:00:20;5.73;;;2.03;;
17784;SDS011;9016;53.582;10.062;2022-12-07T04:02:52;4.00;;;1.90;;
17784;SDS011;9016;53.582;10.062;2022-12-07T04:05:20;5.03;;;1.87;;
17784;SDS011;9016;53.582;10.062;2022-12-07T04:07:48;4.17;;;2.10;;
17784;SDS011;9016;53.582;10.062;2022-12-07T04:10:16;4.37;;;1.80;;
17784;SDS011;9016;53.582;10.062;2022-12-07T04:12:44;3.57;;;1.70;;
17784;SDS011;9016;53.582;10.062;2022-12-07T04:15:12;3.60;;;1.80;;
17784;SDS011;9016;53.582;10.062;2022-12-07T04:17:40;3.33;;;1.80;;
17784;SDS011;9016;53.582;10.062;2022-12-07T04:20:10;3.23;;;1.90;;
17784;SDS011;9016;53.582;10.062;2022-12-07T04:22:39;3.07;;;1.70;;
17784;SDS011;9016;53.582;10.062;2022-12-07T04:25:07;4.43;;;1.80;;
17784;SDS011;9016;53.582;10.062;2022-12-07T04:27:35;3.43;;;1.93;;
17784;SDS011;9016;53.582;10.062;2022-12-07T04:30:03;3.10;;;1.83;;
17784;SDS011;9016;53.582;10.062;2022-12-07T04:32:32;3.03;;;1.90;;
17784;SDS011;9016;53.582;10.062;2022-12-07T04:35:00;4.57;;;2.07;;
17784;SDS011;9016;53.582;10.062;2022-12-07T04:37:29;4.20;;;1.93;;
17784;SDS011;9016;53.582;10.062;2022-12-07T04:39:57;4.50;;;2.17;;
17784;SDS011;9016;53.582;10.062;2022-12-07T04:42:25;4.97;;;2.40;;
17784;SDS011;9016;53.582;10.062;2022-12-07T04:44:53;4.87;;;2.20;;
17784;SDS011;9016;53.582;10.062;2022-12-07T04:47:21;3.40;;;2.13;;
17784;SDS011;9016;53.582;10.062;2022-12-07T04:49:49;2.77;;;2.03;;
17784;SDS011;9016;53.582;10.062;2022-12-07T04:52:17;5.40;;;2.10;;
17784;SDS011;9016;53.582;10.062;2022-12-07T04:54:47;2.73;;;2.10;;
17784;SDS011;9016;53.582;10.062;2022-12-07T04:57:15;3.17;;;2.33;;
17784;SDS011;9016;53.582;10.062;2022-12-07T04:59:43;2.80;;;2.47;;
17784;SDS011;9016;53.582;10.062;2022-12-07T05:02:11;5.10;;;2.93;;
17784;SDS011;9016;53.582;10.062;2022-12-07T05:04:39;4.37;;;2.37;;
17784;SDS011;9016;53.582;10.062;2022-12-07T05:07:07;4.10;;;2.50;;
17784;SDS011;9016;53.582;10.062;2022-12-07T05:09:35;4.77;;;2.43;;
17784;SDS011;9016;53.582;10.062;2022-12-07T05:12:04;5.30;;;2.70;;
17784;SDS011;9016;53.582;10.062;2022-12-07T05:14:32;3.67;;;2.67;;
17784;SDS011;9016;53.582;10.062;2022-12-07T05:17:00;3.67;;;2.57;;
17784;SDS011;9016;53.582;10.062;2022-12-07T05:19:28;3.90;;;2.60;;
17784;SDS011;9016;53.582;10.062;2022-12-07T05:21:56;3.70;;;2.60;;
17784;SDS011;9016;53.582;10.062;2022-12-07T05:24:24;5.33;;;3.10;;
17784;SDS011;9016;53.582;10.062;2022-12-07T05:26:52;3.30;;;2.50;;
17784;SDS011;9016;53.582;10.062;2022-12-07T05:29:21;3.83;;;2.57;;
17784;SDS011;9016;53.582;10.062;2022-12-07T05:31:49;3.83;;;2.37;;
17784;SDS011;9016;53.582;10.062;2022-12-07T05:34:17;5.50;;;2.57;;
17784;SDS011;9016;53.582;10.062;2022-12-07T05:36:45;4.53;;;2.70;;
17784;SDS011;9016;53.582;10.062;2022-12-07T05:39:13;3.70;;;2.43;;
17784;SDS011;9016;53.582;10.062;2022-12-07T05:41:41;4.53;;;2.80;;
17784;SDS011;9016;53.582;10.062;2022-12-07T05:44:28;4.27;;;2.90;;
17784;SDS011;9016;53.582;10.062;2022-12-07T05:46:56;3.63;;;2.73;;
17784;SDS011;9016;53.582;10.062;2022-12-07T05:49:23;4.53;;;2.73;;
17784;SDS011;9016;53.582;10.062;2022-12-07T05:51:51;4.30;;;3.10;;
17784;SDS011;9016;53.582;10.062;2022-12-07T05:54:19;4.53;;;3.00;;
17784;SDS011;9016;53.582;10.062;2022-12-07T05:56:47;3.37;;;2.40;;
17784;SDS011;9016;53.582;10.062;2022-12-07T05:59:15;4.37;;;3.00;;
17784;SDS011;9016;53.582;10.062;2022-12-07T06:01:55;4.87;;;3.17;;
17784;SDS011;9016;53.582;10.062;2022-12-07T06:04:25;4.43;;;3.00;;
17784;SDS011;9016;53.582;10.062;2022-12-07T06:06:53;5.23;;;3.17;;
17784;SDS011;9016;53.582;10.062;2022-12-07T06:09:22;4.93;;;3.17;;
17784;SDS011;9016;53.582;10.062;2022-12-07T06:11:51;5.27;;;3.60;;
17784;SDS011;9016;53.582;10.062;2022-12-07T06:14:36;4.03;;;3.30;;
17784;SDS011;9016;53.582;10.062;2022-12-07T06:17:06;5.10;;;2.87;;
17784;SDS011;9016;53.582;10.062;2022-12-07T06:19:34;3.37;;;2.70;;
17784;SDS011;9016;53.582;10.062;2022-12-07T06:22:03;4.00;;;3.00;;
17784;SDS011;9016;53.582;10.062;2022-12-07T06:24:31;5.03;;;3.07;;
17784;SDS011;9016;53.582;10.062;2022-12-07T06:27:00;4.87;;;2.70;;
17784;SDS011;9016;53.582;10.062;2022-12-07T06:29:28;6.10;;;2.90;;
17784;SDS011;9016;53.582;10.062;2022-12-07T06:31:55;5.13;;;3.00;;
17784;SDS011;9016;53.582;10.062;2022-12-07T06:34:27;5.23;;;2.80;;
17784;SDS011;9016;53.582;10.062;2022-12-07T06:36:55;3.50;;;2.70;;
17784;SDS011;9016;53.582;10.062;2022-12-07T06:39:24;3.77;;;3.00;;
17784;SDS011;9016;53.582;10.062;2022-12-07T06:41:53;4.63;;;3.07;;
17784;SDS011;9016;53.582;10.062;2022-12-07T06:44:21;6.80;;;3.10;;
17784;SDS011;9016;53.582;10.062;2022-12-07T06:46:50;4.53;;;2.83;;
17784;SDS011;9016;53.582;10.062;2022-12-07T06:49:40;4.77;;;2.90;;
17784;SDS011;9016;53.582;10.062;2022-12-07T06:52:08;3.73;;;2.80;;
17784;SDS011;9016;53.582;10.062;2022-12-07T06:54:36;5.60;;;2.97;;
17784;SDS011;9016;53.582;10.062;2022-12-07T06:57:04;5.93;;;3.10;;
17784;SDS011;9016;53.582;10.062;2022-12-07T06:59:31;3.63;;;2.77;;
17784;SDS011;9016;53.582;10.062;2022-12-07T07:01:59;4.43;;;2.90;;
17784;SDS011;9016;53.582;10.062;2022-12-07T07:04:27;5.07;;;2.70;;
17784;SDS011;9016;53.582;10.062;2022-12-07T07:06:57;4.80;;;2.60;;
17784;SDS011;9016;53.582;10.062;2022-12-07T07:09:25;4.97;;;2.70;;
17784;SDS011;9016;53.582;10.062;2022-12-07T07:11:55;5.00;;;2.40;;
17784;SDS011;9016;53.582;10.062;2022-12-07T07:14:22;3.23;;;2.50;;
17784;SDS011;9016;53.582;10.062;2022-12-07T07:16:50;4.07;;;2.30;;
17784;SDS011;9016;53.582;10.062;2022-12-07T07:19:18;7.57;;;2.70;;
17784;SDS011;9016;53.582;10.062;2022-12-07T07:21:46;6.37;;;2.57;;
17784;SDS011;9016;53.582;10.062;2022-12-07T07:24:15;6.13;;;2.67;;
17784;SDS011;9016;53.582;10.062;2022-12-07T07:26:43;5.73;;;2.53;;
17784;SDS011;9016;53.582;10.062;2022-12-07T07:29:11;5.00;;;2.30;;
17784;SDS011;9016;53.582;10.062;2022-12-07T07:31:39;6.37;;;3.30;;
17784;SDS011;9016;53.582;10.062;2022-12-07T07:34:07;5.53;;;2.90;;
17784;SDS011;9016;53.582;10.062;2022-12-07T07:36:35;5.93;;;2.47;;
17784;SDS011;9016;53.582;10.062;2022-12-07T07:39:03;6.43;;;3.30;;
17784;SDS011;9016;53.582;10.062;2022-12-07T07:41:32;4.97;;;3.10;;
17784;SDS011;9016;53.582;10.062;2022-12-07T07:44:00;3.43;;;2.10;;
17784;SDS011;9016;53.582;10.062;2022-12-07T07:46:28;5.17;;;2.27;;
17784;SDS011;9016;53.582;10.062;2022-12-07T07:48:56;3.50;;;2.17;;
17784;SDS011;9016;53.582;10.062;2022-12-07T07:51:26;3.40;;;1.90;;
17784;SDS011;9016;53.582;10.062;2022-12-07T07:53:54;2.87;;;2.00;;
17784;SDS011;9016;53.582;10.062;2022-12-07T07:56:22;3.70;;;1.70;;
17784;SDS011;9016;53.582;10.062;2022-12-07T07:58:52;3.33;;;1.80;;
17784;SDS011;9016;53.582;10.062;2022-12-07T08:01:20;3.97;;;1.93;;
17784;SDS011;9016;53.582;10.062;2022-12-07T08:03:48;4.17;;;2.10;;
17784;SDS011;9016;53.582;10.062;2022-12-07T08:06:17;4.97;;;1.93;;
17784;SDS011;9016;53.582;10.062;2022-12-07T08:08:45;4.10;;;2.00;;
17784;SDS011;9016;53.582;10.062;2022-12-07T08:11:13;2.87;;;1.83;;
17784;SDS011;9016;53.582;10.062;2022-12-07T08:13:41;5.03;;;2.07;;
17784;SDS011;9016;53.582;10.062;2022-12-07T08:16:10;4.23;;;1.90;;
17784;SDS011;9016;53.582;10.062;2022-12-07T08:18:39;3.40;;;1.90;;
17784;SDS011;9016;53.582;10.062;2022-12-07T08:21:09;7.10;;;2.40;;
17784;SDS011;9016;53.582;10.062;2022-12-07T08:23:38;2.70;;;1.63;;
17784;SDS011;9016;53.582;10.062;2022-12-07T08:26:07;4.43;;;2.00;;
17784;SDS011;9016;53.582;10.062;2022-12-07T08:28:36;5.63;;;2.03;;
17784;SDS011;9016;53.582;10.062;2022-12-07T08:31:05;3.60;;;1.83;;
17784;SDS011;9016;53.582;10.062;2022-12-07T08:33:36;4.77;;;2.20;;
17784;SDS011;9016;53.582;10.062;2022-12-07T08:36:05;6.13;;;2.27;;
17784;SDS011;9016;53.582;10.062;2022-12-07T08:38:35;3.97;;;2.07;;
17784;SDS011;9016;53.582;10.062;2022-12-07T08:41:03;3.87;;;2.00;;
17784;SDS011;9016;53.582;10.062;2022-12-07T08:43:33;6.13;;;1.83;;
17784;SDS011;9016;53.582;10.062;2022-12-07T08:46:04;5.77;;;2.10;;
17784;SDS011;9016;53.582;10.062;2022-12-07T08:48:39;5.57;;;2.40;;
17784;SDS011;9016;53.582;10.062;2022-12-07T08:51:14;4.07;;;1.80;;
17784;SDS011;9016;53.582;10.062;2022-12-07T08:53:43;4.50;;;2.17;;
17784;SDS011;9016;53.582;10.062;2022-12-07T08:56:12;4.83;;;1.83;;
17784;SDS011;9016;53.582;10.062;2022-12-07T08:58:41;6.07;;;1.93;;
17784;SDS011;9016;53.582;10.062;2022-12-07T09:01:09;8.87;;;2.53;;
17784;SDS011;9016;53.582;10.062;2022-12-07T09:03:39;7.20;;;2.10;;
17784;SDS011;9016;53.582;10.062;2022-12-07T09:06:07;8.40;;;2.60;;
17784;SDS011;9016;53.582;10.062;2022-12-07T09:08:36;6.90;;;3.03;;
17784;SDS011;9016;53.582;10.062;2022-12-07T09:11:08;5.33;;;2.17;;
17784;SDS011;9016;53.582;10.062;2022-12-07T09:13:36;8.93;;;2.20;;
17784;SDS011;9016;53.582;10.062;2022-12-07T09:16:04;6.40;;;2.20;;
17784;SDS011;9016;53.582;10.062;2022-12-07T09:18:33;3.90;;;2.00;;
17784;SDS011;9016;53.582;10.062;2022-12-07T09:21:02;5.13;;;2.00;;
17784;SDS011;9016;53.582;10.062;2022-12-07T09:23:30;6.80;;;2.40;;
17784;SDS011;9016;53.582;10.062;2022-12-07T09:25:58;5.17;;;1.93;;
17784;SDS011;9016;53.582;10.062;2022-12-07T09:28:32;6.73;;;2.20;;
17784;SDS011;9016;53.582;10.062;2022-12-07T09:31:01;10.30;;;2.63;;
17784;SDS011;9016;53.582;10.062;2022-12-07T09:33:52;7.43;;;2.40;;
17784;SDS011;9016;53.582;10.062;2022-12-07T09:36:23;9.17;;;2.50;;
17784;SDS011;9016;53.582;10.062;2022-12-07T09:38:51;6.23;;;2.33;;
17784;SDS011;9016;53.582;10.062;2022-12-07T09:41:20;4.90;;;2.17;;
17784;SDS011;9016;53.582;10.062;2022-12-07T09:43:51;5.97;;;2.27;;
17784;SDS011;9016;53.582;10.062;2022-12-07T09:46:20;6.57;;;2.40;;
17784;SDS011;9016;53.582;10.062;2022-12-07T09:48:49;5.13;;;2.07;;
17784;SDS011;9016;53.582;10.062;2022-12-07T09:51:19;7.50;;;2.90;;
17784;SDS011;9016;53.582;10.062;2022-12-07T09:53:53;5.97;;;2.30;;
17784;SDS011;9016;53.582;10.062;2022-12-07T09:56:24;4.43;;;2.20;;
17784;SDS011;9016;53.582;10.062;2022-12-07T09:58:54;5.43;;;3.03;;
17784;SDS011;9016;53.582;10.062;2022-12-07T10:01:28;9.27;;;3.03;;
17784;SDS011;9016;53.582;10.062;2022-12-07T10:04:00;7.07;;;2.43;;
17784;SDS011;9016;53.582;10.062;2022-12-07T10:06:36;4.57;;;2.20;;
17784;SDS011;9016;53.582;10.062;2022-12-07T10:09:10;6.30;;;2.30;;
17784;SDS011;9016;53.582;10.062;2022-12-07T10:11:57;8.20;;;2.27;;
17784;SDS011;9016;53.582;10.062;2022-12-07T10:14:27;5.23;;;1.90;;
17784;SDS011;9016;53.582;10.062;2022-12-07T10:20:15;7.43;;;2.00;;
17784;SDS011;9016;53.582;10.062;2022-12-07T10:22:56;5.37;;;2.00;;
17784;SDS011;9016;53.582;10.062;2022-12-07T10:25:28;5.23;;;1.83;;
17784;SDS011;9016;53.582;10.062;2022-12-07T10:28:10;5.37;;;1.80;;
17784;SDS011;9016;53.582;10.062;2022-12-07T10:30:47;5.23;;;1.90;;
17784;SDS011;9016;53.582;10.062;2022-12-07T10:33:34;7.20;;;2.30;;
17784;SDS011;9016;53.582;10.062;2022-12-07T10:36:17;7.40;;;2.30;;
17784;SDS011;9016;53.582;10.062;2022-12-07T10:38:47;6.83;;;2.37;;
17784;SDS011;9016;53.582;10.062;2022-12-07T10:41:17;5.97;;;2.40;;
17784;SDS011;9016;53.582;10.062;2022-12-07T10:43:47;5.53;;;1.80;;
17784;SDS011;9016;53.582;10.062;2022-12-07T10:46:28;5.77;;;2.40;;
17784;SDS011;9016;53.582;10.062;2022-12-07T10:52:25;43.53;;;32.53;;
17784;SDS011;9016;53.582;10.062;2022-12-07T10:55:08;9.07;;;5.20;;
17784;SDS011;9016;53.582;10.062;2022-12-07T10:57:49;17.50;;;10.20;;
17784;SDS011;9016;53.582;10.062;2022-12-07T11:00:29;17.20;;;10.67;;
17784;SDS011;9016;53.582;10.062;2022-12-07T11:03:24;14.73;;;7.97;;
17784;SDS011;9016;53.582;10.062;2022-12-07T11:06:01;9.17;;;3.30;;
17784;SDS011;9016;53.582;10.062;2022-12-07T11:08:44;9.47;;;5.77;;
17784;SDS011;9016;53.582;10.062;2022-12-07T11:11:26;9.03;;;6.30;;
17784;SDS011;9016;53.582;10.062;2022-12-07T11:14:03;15.03;;;9.07;;
17784;SDS011;9016;53.582;10.062;2022-12-07T11:16:44;8.10;;;4.40;;
17784;SDS011;9016;53.582;10.062;2022-12-07T11:22:23;8.07;;;3.67;;
17784;SDS011;9016;53.582;10.062;2022-12-07T11:25:00;15.37;;;9.87;;
17784;SDS011;9016;53.582;10.062;2022-12-07T11:27:43;17.60;;;12.90;;
17784;SDS011;9016;53.582;10.062;2022-12-07T11:30:19;16.00;;;11.17;;
17784;SDS011;9016;53.582;10.062;2022-12-07T11:32:58;11.33;;;5.50;;
17784;SDS011;9016;53.582;10.062;2022-12-07T11:35:40;9.70;;;4.20;;
17784;SDS011;9016;53.582;10.062;2022-12-07T11:38:23;7.00;;;3.90;;
17784;SDS011;9016;53.582;10.062;2022-12-07T11:40:58;9.93;;;4.27;;
17784;SDS011;9016;53.582;10.062;2022-12-07T11:43:44;10.40;;;5.83;;
17784;SDS011;9016;53.582;10.062;2022-12-07T11:46:24;9.70;;;5.67;;
17784;SDS011;9016;53.582;10.062;2022-12-07T11:48:57;7.50;;;3.67;;
17784;SDS011;9016;53.582;10.062;2022-12-07T11:51:31;7.77;;;3.77;;
17784;SDS011;9016;53.582;10.062;2022-12-07T11:54:03;8.13;;;3.30;;
17784;SDS011;9016;53.582;10.062;2022-12-07T11:56:39;6.93;;;3.30;;
17784;SDS011;9016;53.582;10.062;2022-12-07T11:59:08;6.03;;;2.50;;
17784;SDS011;9016;53.582;10.062;2022-12-07T12:01:48;14.87;;;6.97;;
17784;SDS011;9016;53.582;10.062;2022-12-07T12:04:26;9.80;;;4.23;;
17784;SDS011;9016;53.582;10.062;2022-12-07T12:06:58;19.23;;;8.30;;
17784;SDS011;9016;53.582;10.062;2022-12-07T12:09:47;10.47;;;4.43;;
17784;SDS011;9016;53.582;10.062;2022-12-07T12:12:22;9.53;;;3.10;;
17784;SDS011;9016;53.582;10.062;2022-12-07T12:15:29;9.50;;;3.57;;
17784;SDS011;9016;53.582;10.062;2022-12-07T12:21:12;14.07;;;7.90;;
17784;SDS011;9016;53.582;10.062;2022-12-07T12:23:45;11.13;;;6.73;;
17784;SDS011;9016;53.582;10.062;2022-12-07T12:26:18;25.17;;;14.23;;
17784;SDS011;9016;53.582;10.062;2022-12-07T12:28:50;10.20;;;4.03;;
17784;SDS011;9016;53.582;10.062;2022-12-07T12:31:32;6.40;;;3.50;;
17784;SDS011;9016;53.582;10.062;2022-12-07T12:34:29;7.90;;;3.00;;
17784;SDS011;9016;53.582;10.062;2022-12-07T12:40:24;11.10;;;4.27;;
17784;SDS011;9016;53.582;10.062;2022-12-07T12:58:42;9.03;;;2.80;;
17784;SDS011;9016;53.582;10.062;2022-12-07T13:04:27;7.67;;;3.53;;
17784;SDS011;9016;53.582;10.062;2022-12-07T13:10:22;14.00;;;6.57;;
17784;SDS011;9016;53.582;10.062;2022-12-07T13:12:56;7.83;;;3.13;;
17784;SDS011;9016;53.582;10.062;2022-12-07T13:15:32;9.47;;;3.97;;
17784;SDS011;9016;53.582;10.062;2022-12-07T13:18:04;10.27;;;4.20;;
17784;SDS011;9016;53.582;10.062;2022-12-07T13:20:48;14.07;;;5.90;;
17784;SDS011;9016;53.582;10.062;2022-12-07T13:23:18;16.83;;;9.07;;
17784;SDS011;9016;53.582;10.062;2022-12-07T13:25:53;22.23;;;14.33;;
17784;SDS011;9016;53.582;10.062;2022-12-07T13:28:23;21.20;;;13.73;;
17784;SDS011;9016;53.582;10.062;2022-12-07T13:31:04;15.07;;;9.03;;
17784;SDS011;9016;53.582;10.062;2022-12-07T13:33:42;15.53;;;8.70;;
17784;SDS011;9016;53.582;10.062;2022-12-07T13:36:12;8.60;;;3.53;;
17784;SDS011;9016;53.582;10.062;2022-12-07T13:38:53;6.27;;;2.77;;
17784;SDS011;9016;53.582;10.062;2022-12-07T13:41:25;12.73;;;7.03;;
17784;SDS011;9016;53.582;10.062;2022-12-07T13:44:00;6.70;;;3.00;;
17784;SDS011;9016;53.582;10.062;2022-12-07T13:46:35;8.17;;;4.43;;
17784;SDS011;9016;53.582;10.062;2022-12-07T13:49:19;9.93;;;4.20;;
17784;SDS011;9016;53.582;10.062;2022-12-07T13:51:49;10.80;;;4.80;;
17784;SDS011;9016;53.582;10.062;2022-12-07T13:54:18;11.13;;;5.63;;
17784;SDS011;9016;53.582;10.062;2022-12-07T13:56:49;15.73;;;10.93;;
17784;SDS011;9016;53.582;10.062;2022-12-07T13:59:19;9.17;;;4.50;;
17784;SDS011;9016;53.582;10.062;2022-12-07T14:01:49;13.33;;;4.10;;
17784;SDS011;9016;53.582;10.062;2022-12-07T14:04:19;7.50;;;2.63;;
17784;SDS011;9016;53.582;10.062;2022-12-07T14:06:57;5.20;;;2.90;;
17784;SDS011;9016;53.582;10.062;2022-12-07T14:09:27;11.87;;;7.93;;
17784;SDS011;9016;53.582;10.062;2022-12-07T14:11:57;7.83;;;4.70;;
17784;SDS011;9016;53.582;10.062;2022-12-07T14:14:26;8.07;;;3.47;;
17784;SDS011;9016;53.582;10.062;2022-12-07T14:17:08;6.23;;;2.57;;
17784;SDS011;9016;53.582;10.062;2022-12-07T14:19:41;9.73;;;5.77;;
17784;SDS011;9016;53.582;10.062;2022-12-07T14:22:19;14.43;;;8.53;;
17784;SDS011;9016;53.582;10.062;2022-12-07T14:24:58;11.90;;;7.37;;
17784;SDS011;9016;53.582;10.062;2022-12-07T14:27:32;8.23;;;4.47;;
17784;SDS011;9016;53.582;10.062;2022-12-07T14:30:03;7.87;;;4.33;;
17784;SDS011;9016;53.582;10.062;2022-12-07T14:32:34;5.63;;;3.30;;
17784;SDS011;9016;53.582;10.062;2022-12-07T14:35:08;5.50;;;3.67;;
17784;SDS011;9016;53.582;10.062;2022-12-07T14:37:38;5.70;;;3.07;;
17784;SDS011;9016;53.582;10.062;2022-12-07T14:40:12;5.57;;;1.90;;
17784;SDS011;9016;53.582;10.062;2022-12-07T14:42:43;6.00;;;1.70;;
17784;SDS011;9016;53.582;10.062;2022-12-07T14:45:13;4.17;;;1.50;;
17784;SDS011;9016;53.582;10.062;2022-12-07T14:47:43;7.13;;;2.00;;
17784;SDS011;9016;53.582;10.062;2022-12-07T14:50:31;6.07;;;1.57;;
17784;SDS011;9016;53.582;10.062;2022-12-07T14:53:26;3.33;;;1.37;;
17784;SDS011;9016;53.582;10.062;2022-12-07T14:55:56;4.40;;;1.73;;
17784;SDS011;9016;53.582;10.062;2022-12-07T14:58:26;5.43;;;1.63;;
17784;SDS011;9016;53.582;10.062;2022-12-07T15:00:54;3.73;;;1.67;;
17784;SDS011;9016;53.582;10.062;2022-12-07T15:03:21;7.40;;;2.00;;
17784;SDS011;9016;53.582;10.062;2022-12-07T15:05:49;6.40;;;1.80;;
17784;SDS011;9016;53.582;10.062;2022-12-07T15:08:18;5.20;;;1.60;;
17784;SDS011;9016;53.582;10.062;2022-12-07T15:10:46;5.77;;;1.43;;
17784;SDS011;9016;53.582;10.062;2022-12-07T15:13:14;3.40;;;2.13;;
17784;SDS011;9016;53.582;10.062;2022-12-07T15:16:00;6.33;;;2.03;;
17784;SDS011;9016;53.582;10.062;2022-12-07T15:18:28;7.13;;;2.00;;
17784;SDS011;9016;53.582;10.062;2022-12-07T15:20:56;9.73;;;1.90;;
17784;SDS011;9016;53.582;10.062;2022-12-07T15:23:24;4.03;;;1.70;;
17784;SDS011;9016;53.582;10.062;2022-12-07T15:25:52;7.47;;;2.00;;
17784;SDS011;9016;53.582;10.062;2022-12-07T15:28:20;5.63;;;2.30;;
17784;SDS011;9016;53.582;10.062;2022-12-07T15:30:48;5.87;;;1.90;;
17784;SDS011;9016;53.582;10.062;2022-12-07T15:33:18;4.13;;;1.60;;
17784;SDS011;9016;53.582;10.062;2022-12-07T15:35:45;4.53;;;1.70;;
17784;SDS011;9016;53.582;10.062;2022-12-07T15:38:13;7.27;;;1.80;;
17784;SDS011;9016;53.582;10.062;2022-12-07T15:40:41;4.73;;;2.13;;
17784;SDS011;9016;53.582;10.062;2022-12-07T15:43:10;5.83;;;2.00;;
17784;SDS011;9016;53.582;10.062;2022-12-07T15:46:04;4.67;;;1.70;;
17784;SDS011;9016;53.582;10.062;2022-12-07T15:48:32;4.50;;;1.90;;
17784;SDS011;9016;53.582;10.062;2022-12-07T15:51:01;4.77;;;1.70;;
17784;SDS011;9016;53.582;10.062;2022-12-07T15:53:30;5.07;;;1.83;;
17784;SDS011;9016;53.582;10.062;2022-12-07T15:55:58;3.23;;;1.73;;